MMTG/TGZ METAR and TAF weather

Enter ICAO airport designator
Station Type Date Time Source
MMTG METAR 2020/01/21 17:44 UTC NOAA

MMTG 211744Z 30012G22KT 8SM BKN070 23/14 A3023 RMK SLP211 55002 923 8/070


Station Type Date Time Source
MMTG Decoded METAR 2020/01/21 17:44 UTC NOAA

Tuxtla Gutierrez, Chis., Mexico (MMTG) 16-45N 093-07W
Jan 21, 2020 - 12:44 PM EST / 2020.01.21 1744 UTC
Wind: from the WNW (300 degrees) at 14 MPH (12 KT) gusting to 25 MPH (22 KT):0
Visibility: 8 mile(s):0
Sky conditions: mostly cloudy
Temperature: 73 F (23 C)
Dew Point: 57 F (14 C)
Relative Humidity: 56%
Pressure (altimeter): 30.23 in. Hg (1023 hPa)
Pressure tendency: 0.01 inches (0.2 hPa) lower than three hours ago
ob: MMTG 211744Z 30012G22KT 8SM BKN070 23/14 A3023 RMK SLP211 55002 923 8/070
cycle: 17

Station Type Date Time Source
MMTG TAF 2020/01/21 18:24 UTC NOAA

TAF MMTG 211717Z 2118/2218 32015G25KT P6SM BKN020 BKN080 VC SH
FM220200 30012KT 6SM HZ BKN020 BKN080 VC RA
FM221400 36006KT 6SM HZ SCT020 SCT080

Example: see airport list